createdAt,value
2022-10-13T00:00:51.690Z,79.46
2022-10-13T00:03:54.362Z,79.62
2022-10-13T00:06:57.926Z,79.57
2022-10-13T00:10:01.599Z,79.65
2022-10-13T00:13:04.491Z,79.94
2022-10-13T00:16:07.971Z,79.78
2022-10-13T00:19:14.879Z,79.85
2022-10-13T00:22:17.947Z,79.78
2022-10-13T00:25:21.093Z,79.79
2022-10-13T00:28:24.751Z,79.78
2022-10-13T00:31:30.775Z,79.96
2022-10-13T00:34:34.306Z,80.08
2022-10-13T00:37:36.632Z,80.11
2022-10-13T00:40:49.159Z,80.17
2022-10-13T00:44:36.079Z,80.33
2022-10-13T00:47:51.495Z,80.68
2022-10-13T00:50:54.344Z,80.77
2022-10-13T00:53:58.844Z,80.75
2022-10-13T00:57:03.921Z,80.81
2022-10-13T01:00:07.544Z,80.85
2022-10-13T01:03:09.816Z,80.89
2022-10-13T01:06:12.831Z,80.99
2022-10-13T01:09:15.216Z,80.95
2022-10-13T01:12:45.012Z,81.10
2022-10-13T01:16:02.211Z,81.05
2022-10-13T01:19:27.550Z,80.95
2022-10-13T01:23:05.981Z,80.96
2022-10-13T01:26:46.049Z,81.03
2022-10-13T01:29:58.348Z,81.29
2022-10-13T01:33:09.898Z,81.12
2022-10-13T01:36:21.311Z,80.98
2022-10-13T01:39:41.644Z,80.98
2022-10-13T01:43:04.597Z,81.00
2022-10-13T01:46:16.357Z,81.18
2022-10-13T01:49:24.311Z,81.43
2022-10-13T01:52:35.272Z,81.65
2022-10-13T01:55:37.501Z,81.86
2022-10-13T01:58:40.418Z,82.06
2022-10-13T02:02:17.609Z,82.02
2022-10-13T02:05:49.125Z,82.02
2022-10-13T02:09:14.286Z,81.92
2022-10-13T02:12:23.851Z,81.81
2022-10-13T02:15:51.184Z,81.56
2022-10-13T02:18:56.249Z,81.47
2022-10-13T02:21:58.891Z,81.42
2022-10-13T02:25:01.430Z,81.59
2022-10-13T02:28:04.783Z,81.77
2022-10-13T02:31:10.614Z,81.64
2022-10-13T02:34:13.825Z,81.68
2022-10-13T02:37:17.014Z,81.75
2022-10-13T02:40:19.358Z,81.68
2022-10-13T02:43:21.891Z,81.80
2022-10-13T02:46:24.151Z,81.83
2022-10-13T02:49:26.764Z,81.85
2022-10-13T02:52:29.036Z,81.68
2022-10-13T02:55:32.026Z,81.51
2022-10-13T02:58:35.354Z,81.40
2022-10-13T03:01:41.420Z,81.44
2022-10-13T03:04:43.816Z,81.63
2022-10-13T03:07:46.289Z,81.56
2022-10-13T03:10:48.560Z,81.58
2022-10-13T03:13:51.155Z,81.61
2022-10-13T03:16:53.454Z,81.58
2022-10-13T03:19:56.045Z,81.65
2022-10-13T03:22:58.227Z,81.54
2022-10-13T03:26:00.846Z,81.51
2022-10-13T03:29:03.362Z,81.66
2022-10-13T03:32:05.883Z,81.84
2022-10-13T03:35:08.554Z,81.64
2022-10-13T03:38:11.112Z,81.70
2022-10-13T03:41:16.933Z,81.76
2022-10-13T03:44:19.888Z,81.76
2022-10-13T03:47:22.740Z,81.82
2022-10-13T03:50:25.264Z,82.01
2022-10-13T03:53:28.599Z,82.04
2022-10-13T03:56:31.274Z,82.10
2022-10-13T03:59:36.759Z,82.28
2022-10-13T04:02:39.712Z,82.20
2022-10-13T04:05:42.911Z,82.05
2022-10-13T04:08:45.147Z,82.07
2022-10-13T04:11:51.164Z,81.95
2022-10-13T04:14:53.395Z,81.87
2022-10-13T04:17:55.940Z,81.96
2022-10-13T04:20:58.511Z,81.82
2022-10-13T04:24:02.144Z,81.82
2022-10-13T04:27:04.437Z,81.85
2022-10-13T04:30:07.495Z,81.87
2022-10-13T04:33:09.968Z,81.89
2022-10-13T04:36:14.358Z,81.98
2022-10-13T04:39:16.548Z,82.06
2022-10-13T04:42:19.616Z,81.95
2022-10-13T04:45:22.050Z,81.95
2022-10-13T04:48:24.846Z,81.89
2022-10-13T04:51:27.293Z,82.03
2022-10-13T04:54:29.795Z,82.13
2022-10-13T04:57:32.086Z,82.21
2022-10-13T05:00:34.962Z,82.12
2022-10-13T05:03:37.262Z,82.19
2022-10-13T05:10:06.447Z,82.20
2022-10-13T05:13:10.232Z,82.06
2022-10-13T05:16:15.008Z,82.14
2022-10-13T05:19:20.482Z,82.07
2022-10-13T05:22:26.484Z,82.12
2022-10-13T05:25:32.979Z,82.03
2022-10-13T05:28:36.593Z,81.89
2022-10-13T05:31:40.251Z,81.81
2022-10-13T05:34:42.642Z,81.74
2022-10-13T05:37:45.131Z,81.65
2022-10-13T05:40:47.408Z,81.57
2022-10-13T05:43:53.317Z,81.50
2022-10-13T05:46:56.337Z,81.44
2022-10-13T05:50:00.930Z,81.19
2022-10-13T05:53:03.289Z,80.99
2022-10-13T05:56:12.850Z,80.75
2022-10-13T05:59:23.347Z,80.52
2022-10-13T06:02:36.247Z,80.31
2022-10-13T06:05:40.712Z,80.10
2022-10-13T06:08:43.056Z,80.00
2022-10-13T06:11:46.280Z,79.80
2022-10-13T06:14:48.975Z,79.53
2022-10-13T06:17:54.298Z,79.12
2022-10-13T06:20:56.552Z,78.91
2022-10-13T06:23:59.059Z,78.69
2022-10-13T06:27:01.280Z,78.60
2022-10-13T06:30:04.400Z,78.43
2022-10-13T06:33:06.674Z,78.35
2022-10-13T06:36:10.615Z,78.27
2022-10-13T06:39:13.119Z,78.11
2022-10-13T06:42:17.574Z,78.03
2022-10-13T06:45:20.105Z,77.89
2022-10-13T06:48:22.593Z,77.69
2022-10-13T06:51:24.880Z,77.26
2022-10-13T06:54:27.634Z,76.82
2022-10-13T06:57:29.878Z,76.38
2022-10-13T07:00:32.761Z,76.07
2022-10-13T07:03:35.794Z,75.49
2022-10-13T07:06:39.180Z,74.97
2022-10-13T07:09:41.367Z,74.20
2022-10-13T07:12:43.841Z,72.84
2022-10-13T07:15:46.346Z,72.63
2022-10-13T07:18:49.228Z,71.44
2022-10-13T07:21:51.851Z,70.40
2022-10-13T07:24:55.224Z,69.72
2022-10-13T07:27:59.257Z,68.87
2022-10-13T07:31:07.854Z,67.68
2022-10-13T07:34:13.093Z,66.09
2022-10-13T07:37:15.606Z,64.40
2022-10-13T07:40:17.825Z,62.81
2022-10-13T07:43:20.303Z,60.72
2022-10-13T07:46:23.268Z,56.92
2022-10-13T07:49:25.777Z,54.32
2022-10-13T07:52:28.044Z,49.89
2022-10-13T07:55:30.696Z,47.84
2022-10-13T07:58:36.142Z,46.61
2022-10-13T08:01:38.690Z,43.84
2022-10-13T08:04:47.929Z,42.64
2022-10-13T08:07:52.385Z,41.39
2022-10-13T08:11:10.619Z,39.99
2022-10-13T08:14:14.640Z,38.86
2022-10-13T08:17:17.826Z,38.62
2022-10-13T08:20:20.229Z,37.80
2022-10-13T08:23:22.735Z,37.77
2022-10-13T08:26:28.555Z,37.18
2022-10-13T08:29:31.222Z,36.39
2022-10-13T08:32:33.583Z,34.14
2022-10-13T08:35:36.043Z,32.44
2022-10-13T08:38:38.301Z,30.94
2022-10-13T08:41:46.337Z,28.96
2022-10-13T08:48:23.135Z,27.68
2022-10-13T08:51:25.431Z,27.60
2022-10-13T08:54:28.134Z,27.40
2022-10-13T08:57:30.725Z,26.03
2022-10-13T09:00:33.239Z,25.62
2022-10-13T09:03:52.764Z,25.63
2022-10-13T09:07:03.206Z,25.07
2022-10-13T09:10:07.364Z,25.39
2022-10-13T09:13:10.712Z,26.97
2022-10-13T09:16:13.052Z,28.37
2022-10-13T09:19:32.064Z,29.47
2022-10-13T09:22:39.083Z,30.18
2022-10-13T09:25:49.467Z,31.33
2022-10-13T09:28:53.067Z,31.77
2022-10-13T09:32:15.208Z,31.96
2022-10-13T09:35:23.732Z,31.39
2022-10-13T09:38:30.234Z,32.19
2022-10-13T09:41:34.015Z,32.19
2022-10-13T09:44:36.655Z,31.82
2022-10-13T09:47:39.546Z,31.74
2022-10-13T09:50:49.642Z,32.05
2022-10-13T09:53:52.487Z,31.67
2022-10-13T09:57:01.444Z,31.82
2022-10-13T10:00:19.279Z,31.27
2022-10-13T10:03:33.732Z,31.56
2022-10-13T10:06:37.243Z,31.62
2022-10-13T10:09:44.908Z,31.72
2022-10-13T10:12:47.987Z,31.73
2022-10-13T10:16:00.303Z,32.27
2022-10-13T10:19:16.603Z,31.61
2022-10-13T10:23:13.555Z,31.77
2022-10-13T10:26:25.013Z,31.78
2022-10-13T10:29:49.165Z,32.84
2022-10-13T10:32:54.671Z,32.70
2022-10-13T10:36:16.772Z,32.54
2022-10-13T10:39:46.547Z,32.64
2022-10-13T10:43:04.736Z,32.17
2022-10-13T10:46:24.665Z,32.98
2022-10-13T10:49:32.610Z,32.65
2022-10-13T10:52:57.717Z,33.50
2022-10-13T10:56:37.451Z,33.69
2022-10-13T10:59:40.292Z,33.02
2022-10-13T11:03:04.991Z,33.24
2022-10-13T11:06:16.446Z,32.68
2022-10-13T11:09:41.513Z,32.56
2022-10-13T11:12:52.911Z,32.71
2022-10-13T11:15:56.045Z,31.84
2022-10-13T11:19:05.940Z,32.54
2022-10-13T11:22:17.007Z,32.23
2022-10-13T11:25:40.644Z,32.36
2022-10-13T11:28:43.085Z,32.91
2022-10-13T11:31:53.397Z,32.10
2022-10-13T11:35:13.424Z,32.92
2022-10-13T11:38:38.169Z,32.91
2022-10-13T11:42:03.331Z,32.41
2022-10-13T11:45:34.667Z,32.52
2022-10-13T11:49:01.986Z,33.33
2022-10-13T11:52:23.003Z,33.22
2022-10-13T11:55:53.736Z,33.45
2022-10-13T11:58:55.961Z,33.31
2022-10-13T12:02:18.985Z,32.67
2022-10-13T12:05:25.322Z,32.61
2022-10-13T12:08:29.484Z,32.66
2022-10-13T12:11:35.480Z,33.46
2022-10-13T12:14:41.060Z,33.09
2022-10-13T12:17:44.496Z,33.37
2022-10-13T12:20:56.647Z,33.19
2022-10-13T12:24:09.828Z,33.36
2022-10-13T12:27:21.578Z,33.56
2022-10-13T12:30:37.700Z,33.31
2022-10-13T12:33:39.972Z,33.21
2022-10-13T12:36:45.357Z,33.10
2022-10-13T12:39:48.506Z,33.50
2022-10-13T12:42:51.703Z,33.73
2022-10-13T12:45:56.395Z,33.41
2022-10-13T12:49:05.541Z,35.39
2022-10-13T12:52:16.799Z,37.38
2022-10-13T12:55:21.578Z,37.64
2022-10-13T12:58:30.698Z,38.37
2022-10-13T13:01:35.178Z,37.88
2022-10-13T13:04:37.370Z,37.06
2022-10-13T13:07:39.927Z,36.42
2022-10-13T13:10:54.988Z,35.88
2022-10-13T13:14:22.525Z,37.39
2022-10-13T13:17:56.590Z,37.63
2022-10-13T13:20:55.302Z,37.68
2022-10-13T13:23:57.598Z,37.40
2022-10-13T13:27:01.998Z,38.05
2022-10-13T13:30:05.014Z,38.11
2022-10-13T13:33:09.067Z,39.25
2022-10-13T13:36:20.014Z,39.59
2022-10-13T13:39:26.659Z,39.71
2022-10-13T13:42:29.338Z,41.15
2022-10-13T13:45:33.814Z,41.31
2022-10-13T13:48:37.283Z,41.79
2022-10-13T13:51:39.981Z,41.69
2022-10-13T13:54:42.302Z,41.54
2022-10-13T13:57:44.877Z,42.29
2022-10-13T14:00:47.368Z,42.40
2022-10-13T14:03:49.852Z,42.24
2022-10-13T14:06:52.885Z,42.46
2022-10-13T14:09:57.927Z,43.24
2022-10-13T14:13:03.883Z,43.89
2022-10-13T14:16:06.919Z,43.98
2022-10-13T14:19:10.220Z,45.18
2022-10-13T14:22:12.932Z,45.18
2022-10-13T14:25:15.295Z,45.29
2022-10-13T14:28:18.606Z,45.42
2022-10-13T14:31:20.952Z,46.06
2022-10-13T14:34:23.695Z,46.09
2022-10-13T14:37:30.318Z,46.17
2022-10-13T14:40:35.400Z,46.16
2022-10-13T14:43:37.672Z,46.51
2022-10-13T14:46:41.435Z,46.71
2022-10-13T14:49:43.626Z,46.68
2022-10-13T14:52:46.138Z,47.01
2022-10-13T14:55:48.683Z,47.24
2022-10-13T14:58:53.257Z,47.38
2022-10-13T15:01:55.496Z,47.41
2022-10-13T15:04:58.052Z,47.47
2022-10-13T15:08:00.298Z,47.44
2022-10-13T15:11:03.720Z,47.66
2022-10-13T15:14:06.109Z,47.85
2022-10-13T15:17:08.637Z,48.06
2022-10-13T15:20:11.192Z,48.27
2022-10-13T15:23:15.589Z,48.26
2022-10-13T15:26:21.754Z,48.53
2022-10-13T15:29:24.377Z,49.12
2022-10-13T15:32:26.971Z,49.24
2022-10-13T15:35:31.233Z,49.36
2022-10-13T15:38:33.604Z,49.65
2022-10-13T15:41:36.223Z,49.71
2022-10-13T15:45:08.090Z,49.89
2022-10-13T15:48:03.587Z,49.90
2022-10-13T15:51:14.049Z,50.02
2022-10-13T15:54:21.066Z,50.52
2022-10-13T15:57:23.475Z,50.60
2022-10-13T16:00:26.071Z,50.90
2022-10-13T16:03:29.901Z,50.99
2022-10-13T16:06:33.681Z,51.26
2022-10-13T16:09:36.218Z,51.59
2022-10-13T16:12:39.208Z,51.53
2022-10-13T16:15:42.659Z,51.72
2022-10-13T16:18:45.329Z,51.95
2022-10-13T16:21:47.855Z,52.19
2022-10-13T16:24:50.299Z,52.48
2022-10-13T16:27:52.817Z,52.78
2022-10-13T16:30:55.063Z,53.19
2022-10-13T16:33:57.680Z,53.44
2022-10-13T16:37:00.030Z,53.77
2022-10-13T16:40:02.575Z,53.84
2022-10-13T16:43:08.451Z,54.27
2022-10-13T16:46:14.751Z,54.28
2022-10-13T16:49:17.287Z,54.29
2022-10-13T16:52:19.807Z,54.41
2022-10-13T16:55:24.147Z,54.58
2022-10-13T16:58:26.993Z,54.55
2022-10-13T17:01:30.426Z,54.68
2022-10-13T17:04:33.379Z,54.67
2022-10-13T17:07:35.885Z,54.90
2022-10-13T17:10:38.489Z,55.07
2022-10-13T17:13:40.917Z,55.02
2022-10-13T17:16:44.214Z,55.22
2022-10-13T17:19:46.449Z,55.49
2022-10-13T17:22:49.262Z,55.92
2022-10-13T17:25:54.086Z,56.45
2022-10-13T17:28:56.730Z,57.05
2022-10-13T17:31:59.171Z,57.71
2022-10-13T17:35:01.652Z,58.08
2022-10-13T17:38:03.941Z,58.42
2022-10-13T17:41:08.199Z,58.84
2022-10-13T17:44:11.781Z,59.22
2022-10-13T17:47:14.316Z,59.62
2022-10-13T17:50:17.669Z,59.88
2022-10-13T17:53:20.481Z,60.15
2022-10-13T17:56:24.571Z,60.41
2022-10-13T17:59:27.198Z,60.64
2022-10-13T18:02:29.420Z,60.78
2022-10-13T18:05:32.538Z,60.99
2022-10-13T18:08:35.251Z,61.32
2022-10-13T18:11:38.015Z,61.56
2022-10-13T18:14:40.341Z,61.67
2022-10-13T18:17:42.840Z,61.84
2022-10-13T18:20:45.090Z,62.05
2022-10-13T18:23:47.622Z,62.35
2022-10-13T18:26:49.918Z,62.66
2022-10-13T18:29:59.341Z,62.83
2022-10-13T18:33:04.578Z,63.14
2022-10-13T18:36:21.583Z,63.23
2022-10-13T18:39:26.859Z,63.53
2022-10-13T18:42:29.477Z,63.65
2022-10-13T18:45:35.455Z,63.88
2022-10-13T18:48:38.345Z,64.21
2022-10-13T18:51:41.500Z,64.53
2022-10-13T18:54:45.499Z,64.91
2022-10-13T18:57:56.487Z,65.22
2022-10-13T19:01:01.280Z,65.58
2022-10-13T19:04:04.877Z,65.93
2022-10-13T19:07:07.561Z,66.15
2022-10-13T19:10:10.173Z,66.29
2022-10-13T19:13:12.715Z,66.52
2022-10-13T19:16:17.850Z,66.71
2022-10-13T19:19:20.357Z,66.83
2022-10-13T19:22:23.584Z,67.08
2022-10-13T19:25:26.664Z,67.26
2022-10-13T19:28:28.993Z,67.45
2022-10-13T19:31:33.394Z,67.52
2022-10-13T19:34:38.488Z,67.66
2022-10-13T19:37:41.378Z,67.84
2022-10-13T19:40:50.039Z,68.00
2022-10-13T19:43:52.605Z,68.10
2022-10-13T19:46:57.152Z,68.12
2022-10-13T19:50:02.310Z,68.24
2022-10-13T19:53:05.740Z,68.48
2022-10-13T19:56:09.392Z,68.42
2022-10-13T19:59:11.953Z,68.63
2022-10-13T20:02:14.683Z,68.80
2022-10-13T20:05:19.878Z,68.78
2022-10-13T20:08:24.475Z,68.81
2022-10-13T20:11:27.016Z,68.95
2022-10-13T20:14:29.272Z,68.97
2022-10-13T20:17:31.795Z,69.10
2022-10-13T20:20:37.590Z,69.21
2022-10-13T20:23:41.579Z,69.27
2022-10-13T20:26:43.878Z,69.41
2022-10-13T20:29:46.767Z,69.38
2022-10-13T20:32:48.984Z,69.53
2022-10-13T20:35:51.533Z,69.63
2022-10-13T20:38:56.843Z,69.71
2022-10-13T20:41:59.717Z,69.80
2022-10-13T20:45:01.932Z,69.86
2022-10-13T20:48:04.431Z,70.07
2022-10-13T20:51:11.808Z,69.91
2022-10-13T20:54:15.790Z,70.03
2022-10-13T20:57:18.247Z,70.08
2022-10-13T21:00:21.955Z,70.07
2022-10-13T21:03:25.515Z,70.08
2022-10-13T21:06:29.371Z,70.09
2022-10-13T21:09:31.982Z,70.17
2022-10-13T21:12:34.641Z,70.19
2022-10-13T21:15:39.284Z,70.29
2022-10-13T21:18:48.920Z,70.48
2022-10-13T21:21:51.368Z,70.51
2022-10-13T21:24:54.076Z,70.56
2022-10-13T21:27:56.634Z,70.73
2022-10-13T21:31:04.218Z,70.80
2022-10-13T21:34:06.554Z,70.78
2022-10-13T21:37:09.080Z,70.90
2022-10-13T21:40:11.511Z,70.90
2022-10-13T21:43:14.037Z,70.98
2022-10-13T21:46:25.084Z,71.12
2022-10-13T21:49:27.943Z,71.21
2022-10-13T21:52:30.454Z,71.30
2022-10-13T21:55:33.161Z,71.44
2022-10-13T21:58:35.865Z,71.55
2022-10-13T22:01:38.770Z,71.77
2022-10-13T22:04:43.734Z,71.97
2022-10-13T22:07:45.987Z,71.83
2022-10-13T22:10:48.494Z,71.93
2022-10-13T22:13:51.239Z,71.99
2022-10-13T22:16:53.776Z,71.93
2022-10-13T22:19:55.991Z,72.02
2022-10-13T22:22:58.509Z,72.07
2022-10-13T22:26:00.746Z,72.09
2022-10-13T22:29:05.824Z,72.20
2022-10-13T22:32:08.296Z,72.39
2022-10-13T22:35:10.938Z,72.25
2022-10-13T22:38:14.419Z,72.26
2022-10-13T22:41:18.485Z,72.29
2022-10-13T22:44:21.208Z,72.55
2022-10-13T22:47:25.092Z,72.60
2022-10-13T22:50:27.718Z,72.62
2022-10-13T22:53:31.730Z,72.93
2022-10-13T22:56:34.926Z,72.96
2022-10-13T22:59:37.789Z,72.97
2022-10-13T23:02:40.030Z,73.04
2022-10-13T23:05:46.190Z,73.04
2022-10-13T23:08:49.257Z,73.14
2022-10-13T23:11:54.155Z,73.08
2022-10-13T23:15:00.303Z,73.06
2022-10-13T23:18:02.829Z,73.14
2022-10-13T23:21:11.907Z,73.15
2022-10-13T23:24:14.567Z,73.27
2022-10-13T23:27:17.026Z,73.37
2022-10-13T23:30:19.555Z,73.39
2022-10-13T23:33:21.801Z,73.69
2022-10-13T23:36:26.621Z,73.67
2022-10-13T23:39:29.614Z,73.87
2022-10-13T23:42:32.279Z,73.97
2022-10-13T23:45:34.484Z,74.32
2022-10-13T23:48:38.055Z,74.41
2022-10-13T23:51:43.154Z,74.37
2022-10-13T23:54:45.857Z,74.52
2022-10-13T23:57:48.789Z,74.44
